sensor_id;sensor_type;location;lat;lon;timestamp;temperature;humidity
54796;DHT22;40693;43.884;20.340;2024-02-26T00:01:43;307.80;2304.00
54796;DHT22;40693;43.884;20.340;2024-02-26T00:04:12;307.80;2304.00
54796;DHT22;40693;43.884;20.340;2024-02-26T00:06:38;307.70;2304.00
54796;DHT22;40693;43.884;20.340;2024-02-26T00:09:10;307.80;2304.00
54796;DHT22;40693;43.884;20.340;2024-02-26T00:11:36;307.80;2304.00
54796;DHT22;40693;43.884;20.340;2024-02-26T00:14:02;307.80;2304.00
54796;DHT22;40693;43.884;20.340;2024-02-26T00:16:28;307.70;2304.00
54796;DHT22;40693;43.884;20.340;2024-02-26T00:18:54;307.70;2304.00
54796;DHT22;40693;43.884;20.340;2024-02-26T00:21:20;307.70;2304.00
54796;DHT22;40693;43.884;20.340;2024-02-26T00:23:46;307.70;2304.00
54796;DHT22;40693;43.884;20.340;2024-02-26T00:26:12;307.60;2304.00
54796;DHT22;40693;43.884;20.340;2024-02-26T00:28:38;307.50;2304.00
54796;DHT22;40693;43.884;20.340;2024-02-26T00:31:04;307.50;2304.00
54796;DHT22;40693;43.884;20.340;2024-02-26T00:33:30;307.30;2304.00
54796;DHT22;40693;43.884;20.340;2024-02-26T00:35:56;307.30;2304.00
54796;DHT22;40693;43.884;20.340;2024-02-26T00:38:22;307.30;2304.00
54796;DHT22;40693;43.884;20.340;2024-02-26T00:40:47;307.30;2304.00
54796;DHT22;40693;43.884;20.340;2024-02-26T00:43:13;307.20;2304.00
54796;DHT22;40693;43.884;20.340;2024-02-26T00:45:39;307.20;2304.00
54796;DHT22;40693;43.884;20.340;2024-02-26T00:48:05;307.20;2304.00
54796;DHT22;40693;43.884;20.340;2024-02-26T00:50:31;307.20;2304.00
54796;DHT22;40693;43.884;20.340;2024-02-26T00:52:57;307.20;2304.00
54796;DHT22;40693;43.884;20.340;2024-02-26T00:55:23;307.20;2304.00
54796;DHT22;40693;43.884;20.340;2024-02-26T00:57:49;307.20;2304.00
54796;DHT22;40693;43.884;20.340;2024-02-26T01:00:15;282.50;2278.40
54796;DHT22;40693;43.884;20.340;2024-02-26T01:02:41;282.50;2278.40
54796;DHT22;40693;43.884;20.340;2024-02-26T01:05:08;307.20;2304.00
54796;DHT22;40693;43.884;20.340;2024-02-26T01:07:37;307.20;2304.00
54796;DHT22;40693;43.884;20.340;2024-02-26T01:10:03;307.20;2304.00
54796;DHT22;40693;43.884;20.340;2024-02-26T01:12:29;307.30;2304.00
54796;DHT22;40693;43.884;20.340;2024-02-26T01:14:55;307.30;2304.00
54796;DHT22;40693;43.884;20.340;2024-02-26T01:17:21;307.30;2304.00
54796;DHT22;40693;43.884;20.340;2024-02-26T01:19:47;307.30;2304.00
54796;DHT22;40693;43.884;20.340;2024-02-26T01:22:12;307.30;2304.00
54796;DHT22;40693;43.884;20.340;2024-02-26T01:24:38;307.30;2304.00
54796;DHT22;40693;43.884;20.340;2024-02-26T01:27:04;307.30;2304.00
54796;DHT22;40693;43.884;20.340;2024-02-26T01:29:30;307.30;2304.00
54796;DHT22;40693;43.884;20.340;2024-02-26T01:31:56;307.30;2304.00
54796;DHT22;40693;43.884;20.340;2024-02-26T01:34:22;307.20;2304.00
54796;DHT22;40693;43.884;20.340;2024-02-26T01:36:48;282.40;2278.40
54796;DHT22;40693;43.884;20.340;2024-02-26T01:39:13;282.40;2278.40
54796;DHT22;40693;43.884;20.340;2024-02-26T01:41:40;282.40;2278.40
54796;DHT22;40693;43.884;20.340;2024-02-26T01:44:06;282.40;2278.40
54796;DHT22;40693;43.884;20.340;2024-02-26T01:46:34;282.50;2278.40
54796;DHT22;40693;43.884;20.340;2024-02-26T01:49:02;282.50;2278.40
54796;DHT22;40693;43.884;20.340;2024-02-26T01:51:29;307.20;2304.00
54796;DHT22;40693;43.884;20.340;2024-02-26T01:53:56;307.20;2304.00
54796;DHT22;40693;43.884;20.340;2024-02-26T01:56:22;307.20;2304.00
54796;DHT22;40693;43.884;20.340;2024-02-26T01:58:49;307.30;2304.00
54796;DHT22;40693;43.884;20.340;2024-02-26T02:01:16;307.30;2304.00
54796;DHT22;40693;43.884;20.340;2024-02-26T02:03:44;307.30;2304.00
54796;DHT22;40693;43.884;20.340;2024-02-26T02:06:11;307.20;2304.00
54796;DHT22;40693;43.884;20.340;2024-02-26T02:08:37;307.30;2304.00
54796;DHT22;40693;43.884;20.340;2024-02-26T02:11:04;307.30;2304.00
54796;DHT22;40693;43.884;20.340;2024-02-26T02:13:31;307.30;2304.00
54796;DHT22;40693;43.884;20.340;2024-02-26T02:15:57;307.20;2304.00
54796;DHT22;40693;43.884;20.340;2024-02-26T02:18:23;282.50;2278.40
54796;DHT22;40693;43.884;20.340;2024-02-26T02:20:48;282.50;2278.40
54796;DHT22;40693;43.884;20.340;2024-02-26T02:23:14;282.50;2278.40
54796;DHT22;40693;43.884;20.340;2024-02-26T02:25:40;282.50;2278.40
54796;DHT22;40693;43.884;20.340;2024-02-26T02:28:06;307.20;2304.00
54796;DHT22;40693;43.884;20.340;2024-02-26T02:30:32;307.20;2304.00
54796;DHT22;40693;43.884;20.340;2024-02-26T02:32:59;282.50;2278.40
54796;DHT22;40693;43.884;20.340;2024-02-26T02:35:25;282.50;2278.40
54796;DHT22;40693;43.884;20.340;2024-02-26T02:37:56;282.50;2278.40
54796;DHT22;40693;43.884;20.340;2024-02-26T02:40:22;307.20;2304.00
54796;DHT22;40693;43.884;20.340;2024-02-26T02:42:48;307.20;2304.00
54796;DHT22;40693;43.884;20.340;2024-02-26T02:45:14;307.30;2304.00
54796;DHT22;40693;43.884;20.340;2024-02-26T02:47:39;307.30;2304.00
54796;DHT22;40693;43.884;20.340;2024-02-26T02:50:06;307.30;2304.00
54796;DHT22;40693;43.884;20.340;2024-02-26T02:52:31;307.30;2304.00
54796;DHT22;40693;43.884;20.340;2024-02-26T02:54:58;307.40;2304.00
54796;DHT22;40693;43.884;20.340;2024-02-26T02:57:24;307.30;2304.00
54796;DHT22;40693;43.884;20.340;2024-02-26T02:59:49;307.40;2304.00
54796;DHT22;40693;43.884;20.340;2024-02-26T03:02:15;307.40;2304.00
54796;DHT22;40693;43.884;20.340;2024-02-26T03:04:41;307.40;2304.00
54796;DHT22;40693;43.884;20.340;2024-02-26T03:07:07;307.40;2304.00
54796;DHT22;40693;43.884;20.340;2024-02-26T03:09:32;307.40;2304.00
54796;DHT22;40693;43.884;20.340;2024-02-26T03:11:58;307.30;2304.00
54796;DHT22;40693;43.884;20.340;2024-02-26T03:14:24;307.30;2304.00
54796;DHT22;40693;43.884;20.340;2024-02-26T03:16:54;307.30;2304.00
54796;DHT22;40693;43.884;20.340;2024-02-26T03:19:20;307.30;2304.00
54796;DHT22;40693;43.884;20.340;2024-02-26T03:21:46;307.30;2304.00
54796;DHT22;40693;43.884;20.340;2024-02-26T03:24:12;307.20;2304.00
54796;DHT22;40693;43.884;20.340;2024-02-26T03:26:38;307.20;2304.00
54796;DHT22;40693;43.884;20.340;2024-02-26T03:29:04;282.50;2278.40
54796;DHT22;40693;43.884;20.340;2024-02-26T03:31:30;282.50;2278.40
54796;DHT22;40693;43.884;20.340;2024-02-26T03:33:56;307.20;2304.00
54796;DHT22;40693;43.884;20.340;2024-02-26T03:36:22;307.20;2304.00
54796;DHT22;40693;43.884;20.340;2024-02-26T03:38:48;307.20;2304.00
54796;DHT22;40693;43.884;20.340;2024-02-26T03:41:14;307.20;2304.00
54796;DHT22;40693;43.884;20.340;2024-02-26T03:43:40;307.20;2304.00
54796;DHT22;40693;43.884;20.340;2024-02-26T03:46:09;307.20;2304.00
54796;DHT22;40693;43.884;20.340;2024-02-26T03:48:37;307.20;2304.00
54796;DHT22;40693;43.884;20.340;2024-02-26T03:51:03;307.30;2304.00
54796;DHT22;40693;43.884;20.340;2024-02-26T03:53:29;307.30;2304.00
54796;DHT22;40693;43.884;20.340;2024-02-26T03:55:55;307.40;2304.00
54796;DHT22;40693;43.884;20.340;2024-02-26T03:58:21;307.40;2304.00
54796;DHT22;40693;43.884;20.340;2024-02-26T04:00:47;307.40;2304.00
54796;DHT22;40693;43.884;20.340;2024-02-26T04:03:15;307.50;2304.00
54796;DHT22;40693;43.884;20.340;2024-02-26T04:05:41;307.50;2304.00
54796;DHT22;40693;43.884;20.340;2024-02-26T04:08:07;307.50;2304.00
54796;DHT22;40693;43.884;20.340;2024-02-26T04:10:33;307.50;2304.00
54796;DHT22;40693;43.884;20.340;2024-02-26T04:13:05;307.50;2304.00
54796;DHT22;40693;43.884;20.340;2024-02-26T04:15:31;307.40;2304.00
54796;DHT22;40693;43.884;20.340;2024-02-26T04:17:57;307.50;2304.00
54796;DHT22;40693;43.884;20.340;2024-02-26T04:20:23;307.30;2304.00
54796;DHT22;40693;43.884;20.340;2024-02-26T04:22:49;307.30;2304.00
54796;DHT22;40693;43.884;20.340;2024-02-26T04:25:15;307.30;2304.00
54796;DHT22;40693;43.884;20.340;2024-02-26T04:27:41;307.30;2304.00
54796;DHT22;40693;43.884;20.340;2024-02-26T04:30:07;307.30;2304.00
54796;DHT22;40693;43.884;20.340;2024-02-26T04:32:34;307.50;2304.00
54796;DHT22;40693;43.884;20.340;2024-02-26T04:35:00;307.30;2304.00
54796;DHT22;40693;43.884;20.340;2024-02-26T04:37:26;307.30;2304.00
54796;DHT22;40693;43.884;20.340;2024-02-26T04:39:59;307.40;2304.00
54796;DHT22;40693;43.884;20.340;2024-02-26T04:42:26;307.30;2304.00
54796;DHT22;40693;43.884;20.340;2024-02-26T04:44:52;307.30;2304.00
54796;DHT22;40693;43.884;20.340;2024-02-26T04:47:17;307.30;2304.00
54796;DHT22;40693;43.884;20.340;2024-02-26T04:49:43;307.20;2304.00
54796;DHT22;40693;43.884;20.340;2024-02-26T04:52:09;307.30;2304.00
54796;DHT22;40693;43.884;20.340;2024-02-26T04:54:35;307.20;2304.00
54796;DHT22;40693;43.884;20.340;2024-02-26T04:57:01;307.20;2304.00
54796;DHT22;40693;43.884;20.340;2024-02-26T04:59:27;307.20;2304.00
54796;DHT22;40693;43.884;20.340;2024-02-26T05:01:52;307.20;2304.00
54796;DHT22;40693;43.884;20.340;2024-02-26T05:04:18;307.20;2304.00
54796;DHT22;40693;43.884;20.340;2024-02-26T05:06:44;307.20;2304.00
54796;DHT22;40693;43.884;20.340;2024-02-26T05:09:10;282.50;2278.40
54796;DHT22;40693;43.884;20.340;2024-02-26T05:11:36;282.50;2278.40
54796;DHT22;40693;43.884;20.340;2024-02-26T05:14:02;282.40;2278.40
54796;DHT22;40693;43.884;20.340;2024-02-26T05:16:28;282.20;2278.40
54796;DHT22;40693;43.884;20.340;2024-02-26T05:18:56;282.10;2278.40
54796;DHT22;40693;43.884;20.340;2024-02-26T05:21:28;282.00;2278.40
54796;DHT22;40693;43.884;20.340;2024-02-26T05:23:54;282.10;2278.40
54796;DHT22;40693;43.884;20.340;2024-02-26T05:26:23;282.00;2278.40
54796;DHT22;40693;43.884;20.340;2024-02-26T05:28:49;282.00;2278.40
54796;DHT22;40693;43.884;20.340;2024-02-26T05:31:16;282.00;2278.40
54796;DHT22;40693;43.884;20.340;2024-02-26T05:33:42;281.80;2278.40
54796;DHT22;40693;43.884;20.340;2024-02-26T05:36:08;281.80;2278.40
54796;DHT22;40693;43.884;20.340;2024-02-26T05:38:33;281.80;2278.40
54796;DHT22;40693;43.884;20.340;2024-02-26T05:41:00;281.80;2278.40
54796;DHT22;40693;43.884;20.340;2024-02-26T05:43:26;282.00;2278.40
54796;DHT22;40693;43.884;20.340;2024-02-26T05:45:52;282.00;2278.40
54796;DHT22;40693;43.884;20.340;2024-02-26T05:48:18;282.10;2278.40
54796;DHT22;40693;43.884;20.340;2024-02-26T05:50:45;282.20;2278.40
54796;DHT22;40693;43.884;20.340;2024-02-26T05:53:11;282.20;2278.40
54796;DHT22;40693;43.884;20.340;2024-02-26T05:55:37;282.20;2278.40
54796;DHT22;40693;43.884;20.340;2024-02-26T05:58:03;282.20;2278.40
54796;DHT22;40693;43.884;20.340;2024-02-26T06:00:28;282.30;2278.40
54796;DHT22;40693;43.884;20.340;2024-02-26T06:02:54;282.40;2278.40
54796;DHT22;40693;43.884;20.340;2024-02-26T06:05:20;282.40;2278.40
54796;DHT22;40693;43.884;20.340;2024-02-26T06:07:46;282.50;2278.40
54796;DHT22;40693;43.884;20.340;2024-02-26T06:10:11;307.20;2304.00
54796;DHT22;40693;43.884;20.340;2024-02-26T06:12:39;307.20;2304.00
54796;DHT22;40693;43.884;20.340;2024-02-26T06:15:06;307.20;2304.00
54796;DHT22;40693;43.884;20.340;2024-02-26T06:17:32;282.50;2278.40
54796;DHT22;40693;43.884;20.340;2024-02-26T06:19:59;307.20;2304.00
54796;DHT22;40693;43.884;20.340;2024-02-26T06:22:25;307.20;2304.00
54796;DHT22;40693;43.884;20.340;2024-02-26T06:24:51;307.20;2304.00
54796;DHT22;40693;43.884;20.340;2024-02-26T06:27:17;307.30;2304.00
54796;DHT22;40693;43.884;20.340;2024-02-26T06:29:43;307.40;2304.00
54796;DHT22;40693;43.884;20.340;2024-02-26T06:32:08;307.40;2304.00
54796;DHT22;40693;43.884;20.340;2024-02-26T06:34:34;307.60;2304.00
54796;DHT22;40693;43.884;20.340;2024-02-26T06:37:00;307.60;2304.00
54796;DHT22;40693;43.884;20.340;2024-02-26T06:39:26;307.70;2304.00
54796;DHT22;40693;43.884;20.340;2024-02-26T06:41:52;307.80;2304.00
54796;DHT22;40693;43.884;20.340;2024-02-26T06:44:25;307.90;2304.00
54796;DHT22;40693;43.884;20.340;2024-02-26T06:46:51;308.00;2304.00
54796;DHT22;40693;43.884;20.340;2024-02-26T06:49:17;308.00;2304.00
54796;DHT22;40693;43.884;20.340;2024-02-26T06:51:43;307.80;2304.00
54796;DHT22;40693;43.884;20.340;2024-02-26T06:54:08;308.10;2304.00
54796;DHT22;40693;43.884;20.340;2024-02-26T06:56:35;308.00;2304.00
54796;DHT22;40693;43.884;20.340;2024-02-26T06:59:01;332.80;2329.60
54796;DHT22;40693;43.884;20.340;2024-02-26T07:01:26;332.90;2329.60
54796;DHT22;40693;43.884;20.340;2024-02-26T07:03:52;333.00;2329.60
54796;DHT22;40693;43.884;20.340;2024-02-26T07:06:18;333.10;2329.60
54796;DHT22;40693;43.884;20.340;2024-02-26T07:08:44;333.20;2329.60
54796;DHT22;40693;43.884;20.340;2024-02-26T07:11:10;333.20;2329.60
54796;DHT22;40693;43.884;20.340;2024-02-26T07:13:36;333.30;2329.60
54796;DHT22;40693;43.884;20.340;2024-02-26T07:16:03;333.40;2329.60
54796;DHT22;40693;43.884;20.340;2024-02-26T07:18:28;333.30;2329.60
54796;DHT22;40693;43.884;20.340;2024-02-26T07:20:54;333.50;2329.60
54796;DHT22;40693;43.884;20.340;2024-02-26T07:23:21;333.40;2329.60
54796;DHT22;40693;43.884;20.340;2024-02-26T07:25:47;333.50;2329.60
54796;DHT22;40693;43.884;20.340;2024-02-26T07:28:14;358.40;2329.60
54796;DHT22;40693;43.884;20.340;2024-02-26T07:30:40;333.70;2329.60
54796;DHT22;40693;43.884;20.340;2024-02-26T07:33:06;333.70;2329.60
54796;DHT22;40693;43.884;20.340;2024-02-26T07:35:33;358.40;2329.60
54796;DHT22;40693;43.884;20.340;2024-02-26T07:37:59;358.50;2329.60
54796;DHT22;40693;43.884;20.340;2024-02-26T07:40:25;358.60;2329.60
54796;DHT22;40693;43.884;20.340;2024-02-26T07:42:51;358.60;2329.60
54796;DHT22;40693;43.884;20.340;2024-02-26T07:45:16;358.80;2329.60
54796;DHT22;40693;43.884;20.340;2024-02-26T07:47:46;358.80;2329.60
54796;DHT22;40693;43.884;20.340;2024-02-26T07:50:11;358.90;2329.60
54796;DHT22;40693;43.884;20.340;2024-02-26T07:52:38;359.00;2329.60
54796;DHT22;40693;43.884;20.340;2024-02-26T07:55:04;359.10;2329.60
54796;DHT22;40693;43.884;20.340;2024-02-26T08:04:48;384.10;2329.60
54796;DHT22;40693;43.884;20.340;2024-02-26T08:07:14;384.10;2329.60
54796;DHT22;40693;43.884;20.340;2024-02-26T08:09:40;384.20;2329.60
54796;DHT22;40693;43.884;20.340;2024-02-26T08:12:06;384.40;2329.60
54796;DHT22;40693;43.884;20.340;2024-02-26T08:14:32;384.40;2329.60
54796;DHT22;40693;43.884;20.340;2024-02-26T08:16:58;384.70;2329.60
54796;DHT22;40693;43.884;20.340;2024-02-26T08:19:24;384.80;2329.60
54796;DHT22;40693;43.884;20.340;2024-02-26T08:21:50;409.60;2355.20
54796;DHT22;40693;43.884;20.340;2024-02-26T08:24:17;409.60;2355.20
54796;DHT22;40693;43.884;20.340;2024-02-26T08:26:42;409.80;2355.20
54796;DHT22;40693;43.884;20.340;2024-02-26T08:29:08;409.80;2355.20
54796;DHT22;40693;43.884;20.340;2024-02-26T08:31:34;410.00;2355.20
54796;DHT22;40693;43.884;20.340;2024-02-26T08:34:03;410.00;2355.20
54796;DHT22;40693;43.884;20.340;2024-02-26T08:36:31;410.10;2355.20
54796;DHT22;40693;43.884;20.340;2024-02-26T08:38:57;410.20;2355.20
54796;DHT22;40693;43.884;20.340;2024-02-26T08:41:22;410.30;2355.20
54796;DHT22;40693;43.884;20.340;2024-02-26T08:43:48;410.50;2355.20
54796;DHT22;40693;43.884;20.340;2024-02-26T08:46:14;435.30;2329.60
54796;DHT22;40693;43.884;20.340;2024-02-26T08:48:40;435.40;2304.00
54796;DHT22;40693;43.884;20.340;2024-02-26T08:51:07;435.70;2304.00
54796;DHT22;40693;43.884;20.340;2024-02-26T08:53:33;435.70;2304.00
54796;DHT22;40693;43.884;20.340;2024-02-26T08:55:59;435.90;2227.20
54796;DHT22;40693;43.884;20.340;2024-02-26T08:58:27;436.00;2227.20
54796;DHT22;40693;43.884;20.340;2024-02-26T09:00:53;436.10;2252.80
54796;DHT22;40693;43.884;20.340;2024-02-26T09:03:18;460.80;2304.00
54796;DHT22;40693;43.884;20.340;2024-02-26T09:05:44;461.00;2278.40
54796;DHT22;40693;43.884;20.340;2024-02-26T09:08:10;461.10;2201.60
54796;DHT22;40693;43.884;20.340;2024-02-26T09:10:36;461.00;2176.00
54796;DHT22;40693;43.884;20.340;2024-02-26T09:13:02;461.20;2176.00
54796;DHT22;40693;43.884;20.340;2024-02-26T09:15:27;461.20;2150.40
54796;DHT22;40693;43.884;20.340;2024-02-26T09:17:53;461.30;2201.60
54796;DHT22;40693;43.884;20.340;2024-02-26T09:20:19;461.40;2150.40
54796;DHT22;40693;43.884;20.340;2024-02-26T09:22:49;461.50;2099.20
54796;DHT22;40693;43.884;20.340;2024-02-26T09:25:19;461.60;2099.20
54796;DHT22;40693;43.884;20.340;2024-02-26T09:27:44;461.70;2099.20
54796;DHT22;40693;43.884;20.340;2024-02-26T09:30:11;461.70;2073.60
54796;DHT22;40693;43.884;20.340;2024-02-26T09:32:38;486.50;2073.60
54796;DHT22;40693;43.884;20.340;2024-02-26T09:35:04;486.60;2048.00
54796;DHT22;40693;43.884;20.340;2024-02-26T09:42:25;512.00;1996.80
54796;DHT22;40693;43.884;20.340;2024-02-26T09:44:54;512.00;1971.20
54796;DHT22;40693;43.884;20.340;2024-02-26T09:47:27;512.10;1920.00
54796;DHT22;40693;43.884;20.340;2024-02-26T09:49:54;512.20;1920.00
54796;DHT22;40693;43.884;20.340;2024-02-26T09:52:21;512.40;1920.00
54796;DHT22;40693;43.884;20.340;2024-02-26T09:54:49;512.40;1843.20
54796;DHT22;40693;43.884;20.340;2024-02-26T09:57:16;512.40;1817.60
54796;DHT22;40693;43.884;20.340;2024-02-26T09:59:43;512.60;1792.00
54796;DHT22;40693;43.884;20.340;2024-02-26T10:02:12;512.60;1792.00
54796;DHT22;40693;43.884;20.340;2024-02-26T10:04:39;512.50;1792.00
54796;DHT22;40693;43.884;20.340;2024-02-26T10:07:10;512.70;1792.00
54796;DHT22;40693;43.884;20.340;2024-02-26T10:09:36;512.90;1792.00
54796;DHT22;40693;43.884;20.340;2024-02-26T10:12:07;537.90;1817.60
54796;DHT22;40693;43.884;20.340;2024-02-26T10:14:34;538.00;1792.00
54796;DHT22;40693;43.884;20.340;2024-02-26T10:17:00;538.30;1766.40
54796;DHT22;40693;43.884;20.340;2024-02-26T10:19:30;538.50;1715.20
54796;DHT22;40693;43.884;20.340;2024-02-26T10:22:00;563.20;1740.80
54796;DHT22;40693;43.884;20.340;2024-02-26T10:24:27;563.40;1740.80
54796;DHT22;40693;43.884;20.340;2024-02-26T10:26:54;563.60;1740.80
54796;DHT22;40693;43.884;20.340;2024-02-26T10:29:20;563.60;1664.00
54796;DHT22;40693;43.884;20.340;2024-02-26T10:31:46;563.60;1689.60
54796;DHT22;40693;43.884;20.340;2024-02-26T10:34:13;564.00;1664.00
54796;DHT22;40693;43.884;20.340;2024-02-26T10:36:40;564.10;1689.60
54796;DHT22;40693;43.884;20.340;2024-02-26T10:39:11;588.90;1587.20
54796;DHT22;40693;43.884;20.340;2024-02-26T10:41:37;589.00;1587.20
54796;DHT22;40693;43.884;20.340;2024-02-26T10:44:04;588.80;1587.20
54796;DHT22;40693;43.884;20.340;2024-02-26T10:46:30;564.10;1587.20
54796;DHT22;40693;43.884;20.340;2024-02-26T10:48:56;588.80;1587.20
54796;DHT22;40693;43.884;20.340;2024-02-26T10:51:30;564.00;1587.20
54796;DHT22;40693;43.884;20.340;2024-02-26T10:53:57;563.90;1587.20
54796;DHT22;40693;43.884;20.340;2024-02-26T10:56:25;564.00;1612.80
54796;DHT22;40693;43.884;20.340;2024-02-26T10:58:53;564.10;1612.80
54796;DHT22;40693;43.884;20.340;2024-02-26T11:01:21;564.10;1561.60
54796;DHT22;40693;43.884;20.340;2024-02-26T11:03:51;564.10;1561.60
54796;DHT22;40693;43.884;20.340;2024-02-26T11:06:21;588.80;1587.20
54796;DHT22;40693;43.884;20.340;2024-02-26T11:08:50;588.90;1587.20
54796;DHT22;40693;43.884;20.340;2024-02-26T11:11:23;589.10;1536.00
54796;DHT22;40693;43.884;20.340;2024-02-26T11:13:53;589.00;1561.60
54796;DHT22;40693;43.884;20.340;2024-02-26T11:16:23;589.20;1536.00
54796;DHT22;40693;43.884;20.340;2024-02-26T11:18:52;589.20;1536.00
54796;DHT22;40693;43.884;20.340;2024-02-26T11:21:21;589.20;1561.60
54796;DHT22;40693;43.884;20.340;2024-02-26T11:23:56;589.30;1536.00
54796;DHT22;40693;43.884;20.340;2024-02-26T11:26:23;589.50;1510.40
54796;DHT22;40693;43.884;20.340;2024-02-26T11:28:51;589.70;1510.40
54796;DHT22;40693;43.884;20.340;2024-02-26T11:31:17;589.60;1510.40
54796;DHT22;40693;43.884;20.340;2024-02-26T11:33:51;614.40;1459.20
54796;DHT22;40693;43.884;20.340;2024-02-26T11:36:17;589.60;1484.80
54796;DHT22;40693;43.884;20.340;2024-02-26T11:38:44;589.50;1459.20
54796;DHT22;40693;43.884;20.340;2024-02-26T11:41:10;589.50;1459.20
54796;DHT22;40693;43.884;20.340;2024-02-26T11:44:05;589.40;1459.20
54796;DHT22;40693;43.884;20.340;2024-02-26T11:46:33;589.30;1484.80
54796;DHT22;40693;43.884;20.340;2024-02-26T11:49:03;589.40;1459.20
54796;DHT22;40693;43.884;20.340;2024-02-26T11:51:51;589.30;1459.20
54796;DHT22;40693;43.884;20.340;2024-02-26T11:54:52;589.20;1459.20
54796;DHT22;40693;43.884;20.340;2024-02-26T11:57:22;589.20;1484.80
54796;DHT22;40693;43.884;20.340;2024-02-26T11:59:47;589.30;1536.00
54796;DHT22;40693;43.884;20.340;2024-02-26T12:05:26;589.60;1510.40
54796;DHT22;40693;43.884;20.340;2024-02-26T12:07:55;589.60;1484.80
54796;DHT22;40693;43.884;20.340;2024-02-26T12:10:27;589.60;1484.80
54796;DHT22;40693;43.884;20.340;2024-02-26T12:13:11;614.40;1459.20
54796;DHT22;40693;43.884;20.340;2024-02-26T12:15:44;614.50;1459.20
54796;DHT22;40693;43.884;20.340;2024-02-26T12:18:15;614.70;1433.60
54796;DHT22;40693;43.884;20.340;2024-02-26T12:20:41;614.90;1433.60
54796;DHT22;40693;43.884;20.340;2024-02-26T12:23:07;614.90;1408.00
54796;DHT22;40693;43.884;20.340;2024-02-26T12:25:33;614.90;1382.40
54796;DHT22;40693;43.884;20.340;2024-02-26T12:27:59;614.90;1408.00
54796;DHT22;40693;43.884;20.340;2024-02-26T12:30:26;615.00;1408.00
54796;DHT22;40693;43.884;20.340;2024-02-26T12:32:53;615.10;1408.00
54796;DHT22;40693;43.884;20.340;2024-02-26T12:35:23;615.00;1408.00
54796;DHT22;40693;43.884;20.340;2024-02-26T12:37:50;615.00;1382.40
54796;DHT22;40693;43.884;20.340;2024-02-26T12:40:17;615.00;1356.80
54796;DHT22;40693;43.884;20.340;2024-02-26T12:42:43;614.90;1382.40
54796;DHT22;40693;43.884;20.340;2024-02-26T12:45:11;614.80;1382.40
54796;DHT22;40693;43.884;20.340;2024-02-26T12:47:38;614.60;1382.40
54796;DHT22;40693;43.884;20.340;2024-02-26T12:50:04;614.60;1408.00
54796;DHT22;40693;43.884;20.340;2024-02-26T12:52:35;614.60;1382.40
54796;DHT22;40693;43.884;20.340;2024-02-26T12:55:04;614.50;1382.40
54796;DHT22;40693;43.884;20.340;2024-02-26T12:57:32;589.70;1356.80
54796;DHT22;40693;43.884;20.340;2024-02-26T12:59:59;589.60;1382.40
54796;DHT22;40693;43.884;20.340;2024-02-26T13:02:26;589.60;1382.40
54796;DHT22;40693;43.884;20.340;2024-02-26T13:04:54;589.60;1382.40
54796;DHT22;40693;43.884;20.340;2024-02-26T13:07:21;589.60;1382.40
54796;DHT22;40693;43.884;20.340;2024-02-26T13:09:46;589.50;1382.40
54796;DHT22;40693;43.884;20.340;2024-02-26T13:12:12;589.30;1382.40
54796;DHT22;40693;43.884;20.340;2024-02-26T13:14:39;589.20;1408.00
54796;DHT22;40693;43.884;20.340;2024-02-26T13:17:05;589.20;1408.00
54796;DHT22;40693;43.884;20.340;2024-02-26T13:19:31;589.20;1408.00
54796;DHT22;40693;43.884;20.340;2024-02-26T13:22:06;589.30;1408.00
54796;DHT22;40693;43.884;20.340;2024-02-26T13:24:35;589.30;1408.00
54796;DHT22;40693;43.884;20.340;2024-02-26T13:27:02;589.20;1408.00
54796;DHT22;40693;43.884;20.340;2024-02-26T13:29:31;589.20;1408.00
54796;DHT22;40693;43.884;20.340;2024-02-26T13:31:58;589.20;1408.00
54796;DHT22;40693;43.884;20.340;2024-02-26T13:34:27;589.10;1408.00
54796;DHT22;40693;43.884;20.340;2024-02-26T13:36:54;589.00;1408.00
54796;DHT22;40693;43.884;20.340;2024-02-26T13:39:24;588.90;1433.60
54796;DHT22;40693;43.884;20.340;2024-02-26T13:41:51;588.90;1408.00
54796;DHT22;40693;43.884;20.340;2024-02-26T13:44:17;588.80;1408.00
54796;DHT22;40693;43.884;20.340;2024-02-26T13:46:43;588.80;1433.60
54796;DHT22;40693;43.884;20.340;2024-02-26T13:49:09;588.90;1408.00
54796;DHT22;40693;43.884;20.340;2024-02-26T13:51:37;589.00;1408.00
54796;DHT22;40693;43.884;20.340;2024-02-26T13:54:03;588.90;1408.00
54796;DHT22;40693;43.884;20.340;2024-02-26T13:56:29;588.90;1408.00
54796;DHT22;40693;43.884;20.340;2024-02-26T13:58:55;588.90;1408.00
54796;DHT22;40693;43.884;20.340;2024-02-26T14:01:21;589.00;1408.00
54796;DHT22;40693;43.884;20.340;2024-02-26T14:03:47;589.00;1408.00
54796;DHT22;40693;43.884;20.340;2024-02-26T14:06:12;589.10;1408.00
54796;DHT22;40693;43.884;20.340;2024-02-26T14:08:38;589.10;1382.40
54796;DHT22;40693;43.884;20.340;2024-02-26T14:11:04;589.10;1382.40
54796;DHT22;40693;43.884;20.340;2024-02-26T14:13:30;589.20;1382.40
54796;DHT22;40693;43.884;20.340;2024-02-26T14:15:56;589.20;1408.00
54796;DHT22;40693;43.884;20.340;2024-02-26T14:18:22;589.20;1382.40
54796;DHT22;40693;43.884;20.340;2024-02-26T14:20:48;589.20;1382.40
54796;DHT22;40693;43.884;20.340;2024-02-26T14:23:14;589.20;1382.40
54796;DHT22;40693;43.884;20.340;2024-02-26T14:25:40;589.20;1356.80
54796;DHT22;40693;43.884;20.340;2024-02-26T14:28:06;589.20;1331.20
54796;DHT22;40693;43.884;20.340;2024-02-26T14:30:31;589.20;1331.20
54796;DHT22;40693;43.884;20.340;2024-02-26T14:32:58;589.10;1331.20
54796;DHT22;40693;43.884;20.340;2024-02-26T14:35:24;589.10;1305.60
54796;DHT22;40693;43.884;20.340;2024-02-26T14:37:50;589.10;1305.60
54796;DHT22;40693;43.884;20.340;2024-02-26T14:40:17;589.10;1305.60
54796;DHT22;40693;43.884;20.340;2024-02-26T14:42:44;588.90;1305.60
54796;DHT22;40693;43.884;20.340;2024-02-26T14:45:11;588.90;1305.60
54796;DHT22;40693;43.884;20.340;2024-02-26T14:47:37;588.80;1331.20
54796;DHT22;40693;43.884;20.340;2024-02-26T14:50:02;588.80;1305.60